FNLUFYWH

Guest
Details From FNLU - LUANDA 4 DE FEVEREIRO
To FYWH - Windhoek Hosea Kutako Intl
Flight Number -
Tags decoded
Created
Modified
Stats Distance 854 nm / 1,582 km
Max Altitude 0 ft / 0 m
Waypoints 5
Social Downloads 5
Likes 0
Share VATSIM

Download

Looking for another format? Having issues loading an existing format? Contact us
Advertisement - Login to hide

Notes

Requested: FNLU N0462F370 ARGOL UN187 ANVAG UR987 WHV FYWH Unmatched points: N0462F370 UN187

Route

FNLU ARGOL ANVAG WHV FYWH

ID Type Via Altitude Latitude Longitude Leg Dist Tot Dist Heading (true) Name
O FNLU APT - 0 ft / 0 m -8.85838˚ 13.23118˚ - 0 nm - LUANDA 4 DE FEVEREIRO
ARGOL FIX - 0 ft / 0 m -10.11667˚ 13.61667˚ 78 nm 78 nm 163° / 163° -
ANVAG FIX - 0 ft / 0 m -17.41750˚ 15.77333˚ 456 nm 535 nm 164° / 164° -
WHV VOR - 0 ft / 0 m -22.47750˚ 17.47056˚ 318 nm 853 nm 163° / 162° WINDHOEK VOR-DME
O FYWH APT - 0 ft / 0 m -22.48181˚ 17.47157˚ 0 nm 853 nm 168° / 168° Windhoek Hosea Kutako Intl

Altitude Profile

Advertisement - Login to hide

Weather


0- 5 10 15 20 25 30 35+ Temperature / ° C

Clouds and Precipitation
Forecast for 2017-12-14 18:00 UTC. Updated 5 minutes ago

Ground ~20,000 ft ~40,000 ft Winds

FNLU

Details ICAO FNLU (LAD)
Name LUANDA 4 DE FEVEREIRO
Region Angola
Timezone Africa/Luanda (UTC+1.0)
Stats Elevation 243 ft / 74 m (AMSL)
Location -8.858377° 13.231178°
Runways 2
Magnetic Variation 3.483° W

METAR

FNLU 141500Z 27014KT 9999 FEW022 SCT080 28/23 Q1009

Decode

TAF

Not found

Departure Runways

ID Width Length Bearing (true) Bearing (mag) Surface Threshold Offset Overrun Length
05 148 ft / 45 m 12,153 ft / 3,704 m 46.63° 50.11° Asphalt 0 ft / 0 m 0 ft / 0 m
07 197 ft / 60 m 8,176 ft / 2,492 m 67.40° 70.88° Asphalt 0 ft / 0 m 176 ft / 54 m
23 148 ft / 45 m 12,153 ft / 3,704 m 226.62° 230.10° Asphalt 500 ft / 152 m 0 ft / 0 m
25 197 ft / 60 m 8,176 ft / 2,492 m 247.40° 250.88° Asphalt 0 ft / 0 m 0 ft / 0 m

FYWH

Details ICAO FYWH
Name Windhoek Hosea Kutako Intl
Region Namibia
Timezone Africa/Windhoek (UTC+2.0)
Stats Elevation 5,640 ft / 1,719 m (AMSL)
Location -22.481811° 17.471569°
Runways 2
Magnetic Variation 12.006° W

METAR

FYWH 141500Z 08006KT CAVOK 31/M04 Q1018 NOSIG

Decode

TAF

Not found

Destination Runways

ID Width Length Bearing (true) Bearing (mag) Surface Threshold Offset Overrun Length
08 148 ft / 45 m 15,003 ft / 4,573 m 63.51° 75.52° Asphalt 0 ft / 0 m 345 ft / 105 m
16 98 ft / 30 m 5,010 ft / 1,527 m 141.33° 153.34° Asphalt 0 ft / 0 m 38 ft / 12 m
26 148 ft / 45 m 15,003 ft / 4,573 m 243.49° 255.50° Asphalt 0 ft / 0 m 84 ft / 26 m
34 98 ft / 30 m 5,010 ft / 1,527 m 321.32° 333.33° Asphalt 0 ft / 0 m 38 ft / 12 m

Approach Navaids

Runway Type Ident Frequency Range Bearing (true) Bearing (mag) Slope Elevation
26 Localiser WD 110.30 MHz 18 nm / 33 km 243.39° 255.40° - 5,640 ft / 1,719 m (AMSL)
26 Glidescope WD 110.30 MHz 10 nm / 19 km 243.50° 255.50° 3.00° 5,640 ft / 1,719 m (AMSL)

Popular Alternatives